createdAt,value
2019-03-26T00:01:12.050Z,6.33
2019-03-26T00:03:39.287Z,6.10
2019-03-26T00:06:06.457Z,7.23
2019-03-26T00:08:33.773Z,6.70
2019-03-26T00:11:00.936Z,6.13
2019-03-26T00:13:28.175Z,7.70
2019-03-26T00:15:55.330Z,7.40
2019-03-26T00:18:22.662Z,7.63
2019-03-26T00:20:50.189Z,7.40
2019-03-26T00:23:17.316Z,7.57
2019-03-26T00:25:44.594Z,8.10
2019-03-26T00:28:11.750Z,8.10
2019-03-26T00:30:39.915Z,7.40
2019-03-26T00:33:07.204Z,6.80
2019-03-26T00:35:34.480Z,7.33
2019-03-26T00:38:01.688Z,8.10
2019-03-26T00:40:29.259Z,7.90
2019-03-26T00:42:56.486Z,7.83
2019-03-26T00:45:23.752Z,8.43
2019-03-26T00:47:50.916Z,7.20
2019-03-26T00:50:18.175Z,8.40
2019-03-26T00:52:45.524Z,7.70
2019-03-26T00:55:22.583Z,7.50
2019-03-26T00:57:42.339Z,7.57
2019-03-26T01:00:11.621Z,8.00
2019-03-26T01:02:38.811Z,8.60
2019-03-26T01:05:06.772Z,7.33
2019-03-26T01:07:33.989Z,7.60
2019-03-26T01:10:01.124Z,8.87
2019-03-26T01:12:31.094Z,7.37
2019-03-26T01:14:57.573Z,9.17
2019-03-26T01:17:24.980Z,7.50
2019-03-26T01:19:52.158Z,8.63
2019-03-26T01:22:19.536Z,7.90
2019-03-26T01:24:46.712Z,8.67
2019-03-26T01:27:14.061Z,8.80
2019-03-26T01:29:41.267Z,8.40
2019-03-26T01:32:08.480Z,8.70
2019-03-26T01:34:45.518Z,7.57
2019-03-26T01:37:04.825Z,8.50
2019-03-26T01:39:32.001Z,7.60
2019-03-26T01:41:59.415Z,8.30
2019-03-26T01:44:26.844Z,8.80
2019-03-26T01:46:54.016Z,8.37
2019-03-26T01:49:21.167Z,8.60
2019-03-26T01:51:48.340Z,9.23
2019-03-26T01:54:15.534Z,8.40
2019-03-26T01:56:42.706Z,8.97
2019-03-26T01:59:09.979Z,8.60
2019-03-26T02:01:37.128Z,9.10
2019-03-26T02:04:04.267Z,9.60
2019-03-26T02:06:31.452Z,9.00
2019-03-26T02:08:58.689Z,9.77
2019-03-26T02:11:25.869Z,9.83
2019-03-26T02:13:53.138Z,8.90
2019-03-26T02:16:20.268Z,9.40
2019-03-26T02:18:47.860Z,10.43
2019-03-26T02:21:15.037Z,9.80
2019-03-26T02:23:42.180Z,10.20
2019-03-26T02:26:09.344Z,9.63
2019-03-26T02:28:36.718Z,9.10
2019-03-26T02:31:04.004Z,8.83
2019-03-26T02:33:31.169Z,7.03
2019-03-26T02:35:58.369Z,8.63
2019-03-26T02:38:25.532Z,8.53
2019-03-26T02:40:52.810Z,7.60
2019-03-26T02:43:19.987Z,8.93
2019-03-26T02:45:47.171Z,8.30
2019-03-26T02:48:14.446Z,8.70
2019-03-26T02:50:41.737Z,8.90
2019-03-26T02:53:09.160Z,9.13
2019-03-26T02:55:36.990Z,9.27
2019-03-26T02:58:04.198Z,9.67
2019-03-26T03:00:31.554Z,9.60
2019-03-26T03:02:58.831Z,8.63
2019-03-26T03:05:35.096Z,8.47
2019-03-26T03:07:55.444Z,8.90
2019-03-26T03:10:22.781Z,8.93
2019-03-26T03:12:50.053Z,8.00
2019-03-26T03:15:17.338Z,6.77
2019-03-26T03:17:44.505Z,8.13
2019-03-26T03:20:12.115Z,8.60
2019-03-26T03:22:39.264Z,9.10
2019-03-26T03:25:06.946Z,8.07
2019-03-26T03:27:34.257Z,7.70
2019-03-26T03:30:01.441Z,7.70
2019-03-26T03:32:28.640Z,6.90
2019-03-26T03:34:55.795Z,8.27
2019-03-26T03:37:22.947Z,7.87
2019-03-26T03:39:50.305Z,7.70
2019-03-26T03:42:17.515Z,7.33
2019-03-26T03:44:45.001Z,7.00
2019-03-26T03:47:13.529Z,6.50
2019-03-26T03:49:40.841Z,6.80
2019-03-26T03:52:09.794Z,7.63
2019-03-26T03:54:40.760Z,6.97
2019-03-26T03:57:10.187Z,6.63
2019-03-26T03:59:38.755Z,6.03
2019-03-26T04:02:05.952Z,5.67
2019-03-26T04:04:33.280Z,5.70
2019-03-26T04:07:00.479Z,6.30
2019-03-26T04:09:27.666Z,5.30
2019-03-26T04:11:54.816Z,6.00
2019-03-26T04:14:22.033Z,5.93
2019-03-26T04:16:49.309Z,5.60
2019-03-26T04:19:16.520Z,5.90
2019-03-26T04:21:43.706Z,6.00
2019-03-26T04:24:11.175Z,6.27
2019-03-26T04:26:38.397Z,5.40
2019-03-26T04:29:05.884Z,5.30
2019-03-26T04:31:33.235Z,5.10
2019-03-26T04:34:00.845Z,5.70
2019-03-26T04:36:28.009Z,4.70
2019-03-26T04:38:55.215Z,6.00
2019-03-26T04:41:22.562Z,4.97
2019-03-26T04:43:49.709Z,5.53
2019-03-26T04:46:16.860Z,5.90
2019-03-26T04:48:44.075Z,6.60
2019-03-26T04:51:11.326Z,7.17
2019-03-26T04:53:38.497Z,6.70
2019-03-26T04:56:05.703Z,7.23
2019-03-26T04:58:32.865Z,7.30
2019-03-26T05:01:00.049Z,7.20
2019-03-26T05:03:27.540Z,6.20
2019-03-26T05:05:54.687Z,6.90
2019-03-26T05:08:21.939Z,6.23
2019-03-26T05:10:49.470Z,7.17
2019-03-26T05:13:16.793Z,7.40
2019-03-26T05:15:43.948Z,8.40
2019-03-26T05:18:11.153Z,7.70
2019-03-26T05:20:38.678Z,9.40
2019-03-26T05:23:05.908Z,9.10
2019-03-26T05:25:33.180Z,8.80
2019-03-26T05:28:00.470Z,10.77
2019-03-26T05:30:27.613Z,10.33
2019-03-26T05:32:54.861Z,11.03
2019-03-26T05:35:22.042Z,10.00
2019-03-26T05:37:49.257Z,9.50
2019-03-26T05:40:16.491Z,11.40
2019-03-26T05:42:44.700Z,8.93
2019-03-26T05:45:12.263Z,11.63
2019-03-26T05:47:39.747Z,11.03
2019-03-26T05:50:08.247Z,10.67
2019-03-26T05:52:36.226Z,12.33
2019-03-26T05:55:04.317Z,11.80
2019-03-26T05:57:31.599Z,12.90
2019-03-26T05:59:58.931Z,12.20
2019-03-26T06:02:26.213Z,12.50
2019-03-26T06:04:53.425Z,13.27
2019-03-26T06:07:20.600Z,12.03
2019-03-26T06:09:47.787Z,12.47
2019-03-26T06:12:14.976Z,12.40
2019-03-26T06:14:42.211Z,12.77
2019-03-26T06:17:09.388Z,11.33
2019-03-26T06:19:36.539Z,12.20
2019-03-26T06:22:03.741Z,12.20
2019-03-26T06:24:30.937Z,12.07
2019-03-26T06:26:58.196Z,11.33
2019-03-26T06:29:25.399Z,12.97
2019-03-26T06:31:53.728Z,11.43
2019-03-26T06:34:21.201Z,12.23
2019-03-26T06:36:48.444Z,11.00
2019-03-26T06:39:15.637Z,11.50
2019-03-26T06:41:42.793Z,10.90
2019-03-26T06:44:09.986Z,10.63
2019-03-26T06:46:37.275Z,9.53
2019-03-26T06:49:04.444Z,10.47
2019-03-26T06:51:31.591Z,10.27
2019-03-26T06:53:58.744Z,9.93
2019-03-26T06:56:25.932Z,9.80
2019-03-26T06:58:54.093Z,9.40
2019-03-26T07:01:21.388Z,7.93
2019-03-26T07:03:48.665Z,8.63
2019-03-26T07:06:16.243Z,9.23
2019-03-26T07:08:43.408Z,7.33
2019-03-26T07:11:10.668Z,9.23
2019-03-26T07:13:38.058Z,7.23
2019-03-26T07:16:05.281Z,6.80
2019-03-26T07:18:32.526Z,7.10
2019-03-26T07:20:59.988Z,5.97
2019-03-26T07:23:27.293Z,5.17
2019-03-26T07:25:54.587Z,5.20
2019-03-26T07:28:21.760Z,5.43
2019-03-26T07:30:49.093Z,5.13
2019-03-26T07:33:16.264Z,6.13
2019-03-26T07:35:43.631Z,6.03
2019-03-26T07:38:10.904Z,5.20
2019-03-26T07:40:38.066Z,5.10
2019-03-26T07:43:05.402Z,5.20
2019-03-26T07:45:33.216Z,4.60
2019-03-26T07:48:00.953Z,5.13
2019-03-26T07:50:28.365Z,4.60
2019-03-26T07:52:55.726Z,4.20
2019-03-26T07:55:23.011Z,4.63
2019-03-26T07:57:50.182Z,4.10
2019-03-26T08:00:21.761Z,4.13
2019-03-26T08:02:49.079Z,4.00
2019-03-26T08:05:29.031Z,4.13
2019-03-26T08:07:57.480Z,4.53
2019-03-26T08:10:14.392Z,4.00
2019-03-26T08:12:41.576Z,4.13
2019-03-26T08:15:09.696Z,4.50
2019-03-26T08:17:37.122Z,4.00
2019-03-26T08:20:05.206Z,3.57
2019-03-26T08:22:32.387Z,4.77
2019-03-26T08:25:00.004Z,5.60
2019-03-26T08:27:27.303Z,3.77
2019-03-26T08:29:54.601Z,3.50
2019-03-26T08:32:21.884Z,5.20
2019-03-26T08:34:50.770Z,3.83
2019-03-26T08:37:20.054Z,3.43
2019-03-26T08:39:47.361Z,3.67
2019-03-26T08:42:14.484Z,3.70
2019-03-26T08:44:41.752Z,3.10
2019-03-26T08:47:08.993Z,3.70
2019-03-26T08:49:36.183Z,3.33
2019-03-26T08:52:03.525Z,3.03
2019-03-26T08:54:40.859Z,4.00
2019-03-26T08:57:08.307Z,3.53
2019-03-26T08:59:35.481Z,3.17
2019-03-26T09:02:02.611Z,2.83
2019-03-26T09:04:29.866Z,4.30
2019-03-26T09:06:57.183Z,3.50
2019-03-26T09:09:26.385Z,2.87
2019-03-26T09:11:54.006Z,3.00
2019-03-26T09:14:21.197Z,3.37
2019-03-26T09:16:48.432Z,2.80
2019-03-26T09:19:15.725Z,3.00
2019-03-26T09:21:42.931Z,4.20
2019-03-26T09:24:10.064Z,3.17
2019-03-26T09:26:37.220Z,3.37
2019-03-26T09:29:04.600Z,3.07
2019-03-26T09:31:31.739Z,2.60
2019-03-26T09:33:58.978Z,2.47
2019-03-26T09:36:26.445Z,3.20
2019-03-26T09:38:53.830Z,2.73
2019-03-26T09:41:20.988Z,3.33
2019-03-26T09:43:48.172Z,3.33
2019-03-26T09:46:15.385Z,2.90
2019-03-26T09:48:42.758Z,2.60
2019-03-26T09:51:10.981Z,3.57
2019-03-26T09:53:38.333Z,2.10
2019-03-26T09:56:05.527Z,2.07
2019-03-26T09:58:32.697Z,3.70
2019-03-26T10:01:00.073Z,2.20
2019-03-26T10:03:27.270Z,3.70
2019-03-26T10:05:54.504Z,2.93
2019-03-26T10:08:21.920Z,2.70
2019-03-26T10:10:49.098Z,2.77
2019-03-26T10:13:16.301Z,3.10
2019-03-26T10:15:43.628Z,3.03
2019-03-26T10:18:10.784Z,3.43
2019-03-26T10:20:38.033Z,3.37
2019-03-26T10:23:05.188Z,2.70
2019-03-26T10:25:32.448Z,3.00
2019-03-26T10:27:59.698Z,2.10
2019-03-26T10:30:39.474Z,4.10
2019-03-26T10:33:07.445Z,3.90
2019-03-26T10:35:34.592Z,2.30
2019-03-26T10:38:02.863Z,2.90
2019-03-26T10:40:31.027Z,1.87
2019-03-26T10:42:58.461Z,2.90
2019-03-26T10:45:25.661Z,2.67
2019-03-26T10:47:52.795Z,2.33
2019-03-26T10:50:20.021Z,2.10
2019-03-26T10:52:47.228Z,2.30
2019-03-26T10:55:14.367Z,2.43
2019-03-26T10:57:41.871Z,2.80
2019-03-26T11:00:09.349Z,2.40
2019-03-26T11:02:36.566Z,2.40
2019-03-26T11:05:04.241Z,2.83
2019-03-26T11:07:31.660Z,2.40
2019-03-26T11:09:58.844Z,3.57
2019-03-26T11:12:25.972Z,2.17
2019-03-26T11:14:53.169Z,3.00
2019-03-26T11:17:20.346Z,2.40
2019-03-26T11:19:47.530Z,2.23
2019-03-26T11:22:14.723Z,2.00
2019-03-26T11:24:41.944Z,3.07
2019-03-26T11:27:09.157Z,2.83
2019-03-26T11:29:36.359Z,2.60
2019-03-26T11:32:03.649Z,2.67
2019-03-26T11:34:30.923Z,3.97
2019-03-26T11:36:58.163Z,4.93
2019-03-26T11:39:32.558Z,2.80
2019-03-26T11:41:54.476Z,2.20
2019-03-26T11:44:21.835Z,2.30
2019-03-26T11:46:49.109Z,2.60
2019-03-26T11:49:16.356Z,2.20
2019-03-26T11:51:43.816Z,2.60
2019-03-26T11:54:11.064Z,2.53
2019-03-26T11:56:38.312Z,2.77
2019-03-26T11:59:05.567Z,2.73
2019-03-26T12:01:32.813Z,3.13
2019-03-26T12:04:00.155Z,3.50
2019-03-26T12:06:27.322Z,3.10
2019-03-26T12:08:54.507Z,3.27
2019-03-26T12:11:21.849Z,3.80
2019-03-26T12:13:49.805Z,4.37
2019-03-26T12:16:17.021Z,4.80
2019-03-26T12:18:46.667Z,5.37
2019-03-26T12:21:13.888Z,5.93
2019-03-26T12:23:41.184Z,5.00
2019-03-26T12:26:20.425Z,4.77
2019-03-26T12:28:47.752Z,4.90
2019-03-26T12:31:15.030Z,4.63
2019-03-26T12:33:42.349Z,4.37
2019-03-26T12:36:09.491Z,5.60
2019-03-26T12:38:36.779Z,4.70
2019-03-26T12:41:04.084Z,4.80
2019-03-26T12:43:31.218Z,5.03
2019-03-26T12:46:01.710Z,4.27
2019-03-26T12:48:27.736Z,5.67
2019-03-26T12:50:54.997Z,4.10
2019-03-26T12:53:22.489Z,3.67
2019-03-26T12:55:49.860Z,3.80
2019-03-26T12:58:30.472Z,5.40
2019-03-26T13:00:46.110Z,4.37
2019-03-26T13:03:13.431Z,4.40
2019-03-26T13:05:40.679Z,3.70
2019-03-26T13:08:07.860Z,3.70
2019-03-26T13:10:35.091Z,3.40
2019-03-26T13:13:02.516Z,3.07
2019-03-26T13:15:29.933Z,3.20
2019-03-26T13:17:57.430Z,2.83
2019-03-26T13:20:24.681Z,2.67
2019-03-26T13:22:51.952Z,2.60
2019-03-26T13:25:19.844Z,2.80
2019-03-26T13:27:47.355Z,2.40
2019-03-26T13:30:15.612Z,3.33
2019-03-26T13:32:42.826Z,2.90
2019-03-26T13:35:10.881Z,2.37
2019-03-26T13:37:38.172Z,3.07
2019-03-26T13:40:05.693Z,2.90
2019-03-26T13:42:32.932Z,2.20
2019-03-26T13:45:00.354Z,2.90
2019-03-26T13:47:27.937Z,2.13
2019-03-26T13:49:55.234Z,2.10
2019-03-26T13:52:22.417Z,2.10
2019-03-26T13:54:49.580Z,3.10
2019-03-26T13:57:16.877Z,2.73
2019-03-26T13:59:44.108Z,2.83
2019-03-26T14:02:11.401Z,2.17
2019-03-26T14:04:39.895Z,2.63
2019-03-26T14:07:07.385Z,2.70
2019-03-26T14:09:34.782Z,2.63
2019-03-26T14:12:04.036Z,2.97
2019-03-26T14:14:31.188Z,2.67
2019-03-26T14:16:58.410Z,2.83
2019-03-26T14:19:26.441Z,2.43
2019-03-26T14:21:55.576Z,2.07
2019-03-26T14:24:29.646Z,2.20
2019-03-26T14:26:56.792Z,2.27
2019-03-26T14:29:24.822Z,1.97
2019-03-26T14:31:52.293Z,2.93
2019-03-26T14:34:19.471Z,3.40
2019-03-26T14:36:46.762Z,2.73
2019-03-26T14:39:13.991Z,3.30
2019-03-26T14:41:41.196Z,2.17
2019-03-26T14:44:08.461Z,2.67
2019-03-26T14:46:35.639Z,2.23
2019-03-26T14:49:04.929Z,3.60
2019-03-26T14:51:32.191Z,3.70
2019-03-26T14:53:59.473Z,5.03
2019-03-26T14:56:26.742Z,3.07
2019-03-26T14:58:54.009Z,3.07
2019-03-26T15:01:21.291Z,4.43
2019-03-26T15:03:48.485Z,3.80
2019-03-26T15:06:15.657Z,3.70
2019-03-26T15:08:42.886Z,3.17
2019-03-26T15:11:10.071Z,3.43
2019-03-26T15:13:37.281Z,3.07
2019-03-26T15:16:04.507Z,2.80
2019-03-26T15:18:31.733Z,3.63
2019-03-26T15:20:58.899Z,3.90
2019-03-26T15:23:26.059Z,2.90
2019-03-26T15:25:53.202Z,2.70
2019-03-26T15:28:20.505Z,2.70
2019-03-26T15:30:47.704Z,2.37
2019-03-26T15:33:14.881Z,2.20
2019-03-26T15:35:42.191Z,2.43
2019-03-26T15:38:09.335Z,1.83
2019-03-26T15:40:36.613Z,2.00
2019-03-26T15:43:03.886Z,1.97
2019-03-26T15:45:31.253Z,1.50
2019-03-26T15:47:58.421Z,2.00
2019-03-26T15:50:37.013Z,2.20
2019-03-26T15:53:04.359Z,2.00
2019-03-26T15:55:31.602Z,2.37
2019-03-26T15:58:00.178Z,1.80
2019-03-26T16:00:29.098Z,2.20
2019-03-26T16:02:56.269Z,2.33
2019-03-26T16:05:23.479Z,2.00
2019-03-26T16:07:50.833Z,2.53
2019-03-26T16:10:17.974Z,3.60
2019-03-26T16:12:45.490Z,3.30
2019-03-26T16:15:13.016Z,2.70
2019-03-26T16:17:40.472Z,2.70
2019-03-26T16:20:08.081Z,2.67
2019-03-26T16:22:36.547Z,2.40
2019-03-26T16:25:04.200Z,1.97
2019-03-26T16:27:31.411Z,2.60
2019-03-26T16:29:58.549Z,2.30
2019-03-26T16:32:25.804Z,2.80
2019-03-26T16:34:53.297Z,2.53
2019-03-26T16:37:20.483Z,1.93
2019-03-26T16:39:48.037Z,2.00
2019-03-26T16:42:15.293Z,2.47
2019-03-26T16:44:42.426Z,2.40
2019-03-26T16:47:09.569Z,2.73
2019-03-26T16:49:36.733Z,2.50
2019-03-26T16:52:04.022Z,2.80
2019-03-26T16:54:31.209Z,3.90
2019-03-26T16:56:58.892Z,2.90
2019-03-26T16:59:26.370Z,2.90
2019-03-26T17:01:53.629Z,2.70
2019-03-26T17:04:20.849Z,3.13
2019-03-26T17:06:48.065Z,3.00
2019-03-26T17:09:15.338Z,2.73
2019-03-26T17:11:42.521Z,2.73
2019-03-26T17:14:09.741Z,2.63
2019-03-26T17:16:36.959Z,2.73
2019-03-26T17:19:04.420Z,2.63
2019-03-26T17:21:31.719Z,2.80
2019-03-26T17:23:58.997Z,2.93
2019-03-26T17:26:26.805Z,4.10
2019-03-26T17:28:54.471Z,2.73
2019-03-26T17:31:21.716Z,3.37
2019-03-26T17:33:49.219Z,2.87
2019-03-26T17:36:16.485Z,2.80
2019-03-26T17:38:43.673Z,3.70
2019-03-26T17:41:10.878Z,2.80
2019-03-26T17:43:38.162Z,3.10
2019-03-26T17:46:05.337Z,3.33
2019-03-26T17:48:32.604Z,4.03
2019-03-26T17:50:59.865Z,3.60
2019-03-26T17:53:27.190Z,3.27
2019-03-26T17:55:54.484Z,2.30
2019-03-26T17:58:21.761Z,3.03
2019-03-26T18:00:49.123Z,3.93
2019-03-26T18:03:26.382Z,4.10
2019-03-26T18:05:45.488Z,2.83
2019-03-26T18:08:12.669Z,3.77
2019-03-26T18:10:39.832Z,4.33
2019-03-26T18:13:07.140Z,4.10
2019-03-26T18:15:34.658Z,3.40
2019-03-26T18:18:02.165Z,3.53
2019-03-26T18:20:32.849Z,2.93
2019-03-26T18:22:58.680Z,2.30
2019-03-26T18:25:25.917Z,4.00
2019-03-26T18:27:53.267Z,4.10
2019-03-26T18:30:20.767Z,3.57
2019-03-26T18:32:48.073Z,3.20
2019-03-26T18:35:15.192Z,2.90
2019-03-26T18:37:42.459Z,3.43
2019-03-26T18:40:09.830Z,3.20
2019-03-26T18:42:43.812Z,3.07
2019-03-26T18:45:06.537Z,3.20
2019-03-26T18:47:33.737Z,4.23
2019-03-26T18:50:00.972Z,3.90
2019-03-26T18:52:29.164Z,3.60
2019-03-26T18:54:56.407Z,2.93
2019-03-26T18:57:23.653Z,3.47
2019-03-26T18:59:50.840Z,3.10
2019-03-26T19:02:18.040Z,3.20
2019-03-26T19:04:45.221Z,3.17
2019-03-26T19:07:12.488Z,3.33
2019-03-26T19:09:39.761Z,2.93
2019-03-26T19:12:06.920Z,3.17
2019-03-26T19:14:34.142Z,2.90
2019-03-26T19:17:01.381Z,3.40
2019-03-26T19:19:28.515Z,2.70
2019-03-26T19:21:55.768Z,2.70
2019-03-26T19:24:23.289Z,2.90
2019-03-26T19:26:50.501Z,3.50
2019-03-26T19:29:17.782Z,3.33
2019-03-26T19:31:44.960Z,3.33
2019-03-26T19:34:12.135Z,3.30
2019-03-26T19:36:39.380Z,3.73
2019-03-26T19:39:06.959Z,3.60
2019-03-26T19:41:34.308Z,3.77
2019-03-26T19:44:01.593Z,3.50
2019-03-26T19:46:28.799Z,3.90
2019-03-26T19:48:56.664Z,5.53
2019-03-26T19:51:24.861Z,3.93
2019-03-26T19:53:52.079Z,3.90
2019-03-26T19:56:19.251Z,4.30
2019-03-26T19:58:46.396Z,4.23
2019-03-26T20:01:13.607Z,4.17
2019-03-26T20:03:40.919Z,4.07
2019-03-26T20:06:13.278Z,4.50
2019-03-26T20:08:37.244Z,3.97
2019-03-26T20:11:04.400Z,3.93
2019-03-26T20:13:31.685Z,4.20
2019-03-26T20:15:58.924Z,4.27
2019-03-26T20:18:26.172Z,4.33
2019-03-26T20:20:53.419Z,4.50
2019-03-26T20:23:20.707Z,4.93
2019-03-26T20:25:48.292Z,4.60
2019-03-26T20:28:15.484Z,3.77
2019-03-26T20:30:42.714Z,4.00
2019-03-26T20:33:09.921Z,4.30
2019-03-26T20:35:37.055Z,3.90
2019-03-26T20:38:04.307Z,4.20
2019-03-26T20:40:31.443Z,3.37
2019-03-26T20:42:59.201Z,3.70
2019-03-26T20:45:26.357Z,4.83
2019-03-26T20:47:53.583Z,3.97
2019-03-26T20:50:21.460Z,3.77
2019-03-26T20:52:48.594Z,3.10
2019-03-26T20:55:20.644Z,4.43
2019-03-26T20:57:48.109Z,3.27
2019-03-26T21:00:25.476Z,4.00
2019-03-26T21:02:52.686Z,3.80
2019-03-26T21:05:22.827Z,4.10
2019-03-26T21:07:50.007Z,3.43
2019-03-26T21:10:17.188Z,3.67
2019-03-26T21:12:44.364Z,3.27
2019-03-26T21:15:11.959Z,3.50
2019-03-26T21:17:39.370Z,2.73
2019-03-26T21:20:08.102Z,2.47
2019-03-26T21:22:35.575Z,3.40
2019-03-26T21:25:03.462Z,3.23
2019-03-26T21:27:30.579Z,3.77
2019-03-26T21:30:10.087Z,3.57
2019-03-26T21:32:26.857Z,3.40
2019-03-26T21:34:54.261Z,3.17
2019-03-26T21:37:21.619Z,3.50
2019-03-26T21:39:48.751Z,3.40
2019-03-26T21:42:16.232Z,3.27
2019-03-26T21:44:43.388Z,3.40
2019-03-26T21:47:10.532Z,3.30
2019-03-26T21:49:37.712Z,3.77
2019-03-26T21:52:04.999Z,3.20
2019-03-26T21:54:32.227Z,4.73
2019-03-26T21:56:59.660Z,3.13
2019-03-26T21:59:26.875Z,3.90
2019-03-26T22:01:54.060Z,3.63
2019-03-26T22:04:21.244Z,3.07
2019-03-26T22:06:48.987Z,5.13
2019-03-26T22:09:16.158Z,3.53
2019-03-26T22:11:49.796Z,3.33
2019-03-26T22:14:18.021Z,3.40
2019-03-26T22:16:41.646Z,3.70
2019-03-26T22:19:08.799Z,3.53
2019-03-26T22:21:36.063Z,3.73
2019-03-26T22:24:03.229Z,4.03
2019-03-26T22:26:30.384Z,3.97
2019-03-26T22:28:57.540Z,4.47
2019-03-26T22:31:25.210Z,3.40
2019-03-26T22:33:52.487Z,3.70
2019-03-26T22:36:21.016Z,3.57
2019-03-26T22:38:48.160Z,3.90
2019-03-26T22:41:15.359Z,4.50
2019-03-26T22:43:42.715Z,3.57
2019-03-26T22:46:09.904Z,4.17
2019-03-26T22:48:37.059Z,3.50
2019-03-26T22:51:04.212Z,4.23
2019-03-26T22:53:31.365Z,4.00
2019-03-26T22:55:58.646Z,4.20
2019-03-26T22:58:25.915Z,3.63
2019-03-26T23:00:53.761Z,5.20
2019-03-26T23:03:21.337Z,4.10
2019-03-26T23:05:48.867Z,4.87
2019-03-26T23:08:17.669Z,5.27
2019-03-26T23:10:45.040Z,6.80
2019-03-26T23:13:12.602Z,10.17
2019-03-26T23:15:39.869Z,4.60
2019-03-26T23:18:07.099Z,4.63
2019-03-26T23:20:34.521Z,4.73
2019-03-26T23:23:01.808Z,7.23
2019-03-26T23:25:29.023Z,4.93
2019-03-26T23:27:56.312Z,4.73
2019-03-26T23:30:23.802Z,5.60
2019-03-26T23:32:51.026Z,5.27
2019-03-26T23:35:18.317Z,5.53
2019-03-26T23:37:45.463Z,5.30
2019-03-26T23:40:13.673Z,5.23
2019-03-26T23:42:41.008Z,5.80
2019-03-26T23:45:09.744Z,5.77
2019-03-26T23:47:36.888Z,5.60
2019-03-26T23:50:05.969Z,6.53
2019-03-26T23:52:33.145Z,5.80
2019-03-26T23:55:00.345Z,4.60
2019-03-26T23:57:27.622Z,6.27
2019-03-26T23:59:54.785Z,6.30
